PABR METAR and TAF weather

Enter ICAO airport designator
Station Type Date Time Source
PABR METAR 2020/06/06 00:53 UTC NOAA

PABR 060053Z 10015KT 9SM OVC010 01/M02 A3006 RMK AO2 SLP181 T00061022


Station Type Date Time Source
PABR Decoded METAR 2020/06/06 00:53 UTC NOAA

POST ROGERS MEMORIAL AIRPORT, AK, United States (PABR) 71-17N 156-46W 10M
Jun 05, 2020 - 08:53 PM EDT / 2020.06.06 0053 UTC
Wind: from the E (100 degrees) at 17 MPH (15 KT):0
Visibility: 9 mile(s):0
Sky conditions: overcast
Temperature: 33.1 F (0.6 C)
Windchill: 23 F (-5 C):1
Dew Point: 28.0 F (-2.2 C)
Relative Humidity: 81%
Pressure (altimeter): 30.06 in. Hg (1017 hPa)
ob: PABR 060053Z 10015KT 9SM OVC010 01/M02 A3006 RMK AO2 SLP181 T00061022
cycle: 1

Station Type Date Time Source
PABR TAF 2020/06/05 21:52 UTC NOAA

TAF
AMD PABR 052050Z 0521/0618 09015KT 3SM -SN BR OVC010
FM060800 09013KT 1 1/2SM BR OVC003

Example: see airport list